Latest Weather Observations for Montague Island

IDN60801

Issued at 5:03 am EDT Wednesday 13 November 2019 (issued every 10 minutes, with the page automatically refreshed every 10 minutes)

About weather observations | Map of weather stations | Latest weather observations for NSW | Other Formats
Station Details ID: 069017 Name: MONTAGUE ISLAND LIGHTHOUSE Lat: -36.25 Lon: 150.23 Height: 52.0 m
Data from the previous 72 hours. | See also: Recent months at Montague Island
Date/Time
EDT
Temp
°C
App
Temp
°C
Dew
Point
°C
Rel
Hum
%
Delta-T
°C
Wind Press
QNH
hPa
Press
MSL
hPa
Rain since
9am
mm
Dir  Spd
km/h
Gust
km/h
Spd
kts
Gust
kts
13/05:00am 12.3 3.0 5.7 64 3.1 SW 44 54 24 29 1009.7 1009.6 0.0
13/04:30am 12.6 3.9 5.8 63 3.2 SW 41 52 22 28 1009.7 1009.6 0.0
13/04:00am 13.2 4.4 7.2 67 2.9 SW 43 52 23 28 1009.3 1009.2 0.0
13/03:30am 13.4 5.2 6.7 64 3.2 SW 39 48 21 26 1009.3 1009.2 0.0
13/03:00am 13.8 7.7 8.2 69 2.8 SSW 30 41 16 22 1009.4 1009.3 0.0
13/02:59am 13.8 7.7 8.2 69 2.8 SSW 30 41 16 22 1009.4 1009.3 0.0
13/02:30am 13.7 10.4 9.4 75 2.2 SW 17 22 9 12 1009.3 1009.2 0.0
13/02:00am 13.8 11.3 9.6 76 2.2 WSW 13 17 7 9 1009.2 1009.1 0.0
13/01:30am 14.4 13.1 9.8 74 2.4 SW 7 13 4 7 1009.3 1009.2 0.0
13/01:00am 14.7 11.3 9.3 70 2.8 S 17 24 9 13 1009.2 1009.1 0.0
13/12:30am 14.7 10.2 8.4 66 3.2 S 22 28 12 15 1009.1 1009.0 0.0
13/12:00am 15.0 10.4 9.6 70 2.8 SSE 24 30 13 16 1008.9 1008.8 0.0
 
Date/Time
EDT
Temp
°C
App
Temp
°C
Dew
Point
°C
Rel
Hum
%
Delta-T
°C
Wind Press
QNH
hPa
Press
MSL
hPa
Rain since
9am
mm
Dir  Spd
km/h
Gust
km/h
Spd
kts
Gust
kts
12/11:30pm 15.1 9.7 9.5 69 2.9 SSE 28 32 15 17 1008.9 1008.8 0.0
12/11:00pm 15.1 10.0 9.2 68 3.0 SSE 26 32 14 17 1009.1 1009.0 0.0
12/10:30pm 15.5 9.5 8.7 64 3.5 SSE 30 35 16 19 1009.0 1008.9 0.0
12/10:00pm 15.7 9.8 8.9 64 3.5 S 30 35 16 19 1008.8 1008.7 0.0
12/09:30pm 15.7 10.2 9.1 65 3.4 S 28 35 15 19 1008.4 1008.3 0.0
12/09:00pm 15.8 9.1 8.3 61 3.8 S 33 43 18 23 1007.8 1007.7 0.0
12/08:30pm 15.9 8.7 9.3 65 3.4 S 37 46 20 25 1007.3 1007.2 0.0
12/08:00pm 15.8 8.3 9.5 66 3.3 S 39 50 21 27 1006.5 1006.4 0.0
12/07:30pm 15.8 8.0 9.7 67 3.2 SSE 41 50 22 27 1005.9 1005.8 0.0
12/07:00pm 16.0 7.7 9.2 64 3.5 SSE 43 52 23 28 1005.2 1005.1 0.0
12/06:30pm 16.1 7.2 9.3 64 3.5 SSE 46 59 25 32 1004.5 1004.4 0.0
12/06:00pm 16.0 7.0 10.3 69 3.0 SSE 48 57 26 31 1003.9 1003.8 0.0
12/05:30pm 15.8 6.8 10.1 69 3.0 SSE 48 63 26 34 1003.3 1003.2 0.0
12/05:00pm 16.1 6.7 11.5 74 2.5 SSE 52 61 28 33 1002.9 1002.8 0.0
12/04:30pm 16.0 5.7 11.6 75 2.4 SSE 57 67 31 36 1002.5 1002.4 0.0
12/04:00pm 16.1 5.7 11.3 73 2.6 SSE 57 67 31 36 1002.1 1002.0 0.0
12/03:30pm 15.9 6.0 11.1 73 2.6 SSE 54 67 29 36 1001.9 1001.8 0.0
12/03:00pm 16.2 7.4 12.2 77 2.2 SSE 50 61 27 33 1002.1 1002.0 0.0
12/02:30pm 16.8 8.1 12.5 76 2.4 SSE 50 61 27 33 1001.7 1001.6 0.0
12/02:00pm 17.0 7.6 12.7 76 2.4 SSE 54 70 29 38 1001.1 1001.0 0.0
12/01:55pm 17.4 9.1 13.7 79 2.1 SSE 50 69 27 37 1001.5 1001.4 0.0
12/01:30pm 17.5 7.7 13.2 76 2.4 SSE 57 70 31 38 1001.1 1001.0 0.0
12/01:00pm 17.7 6.9 12.4 71 3.0 SSE 61 93 33 50 999.8 999.7 0.0
12/12:52pm 20.8 10.0 10.0 50 5.8 WSW 57 80 31 43 999.5 999.4 0.0
12/12:50pm 24.4 12.9 7.1 33 9.1 W 57 80 31 43 998.8 998.7 0.0
12/12:30pm 31.3 19.0 -0.4 13 15.2 WNW 54 83 29 45 998.2 998.1 0.0
12/12:23pm 31.8 18.8 -1.1 12 15.6 WNW 57 83 31 45 998.4 998.3 0.0
12/12:20pm 31.6 19.7 -0.1 13 15.3 WNW 52 80 28 43 998.2 998.1 0.0
12/12:03pm 31.8 22.0 0.0 13 15.4 WNW 41 65 22 35 998.3 998.2 0.0
12/12:00pm 31.9 22.4 -1.0 12 15.8 WNW 39 57 21 31 998.5 998.4 0.0
12/11:30am 31.0 19.2 0.4 14 14.8 WNW 52 72 28 39 998.8 998.7 0.0
12/11:00am 29.5 19.9 3.5 19 13.2 WNW 43 72 23 39 999.3 999.2 0.0
12/10:51am 29.7 22.8 0.3 15 14.1 WNW 26 65 14 35 999.2 999.1 0.0
12/10:50am 29.3 23.9 4.7 21 12.7 WNW 22 52 12 28 999.4 999.3 0.0
12/10:30am 25.9 21.3 8.0 32 9.6 N 22 35 12 19 1000.1 1000.0 0.0
12/10:00am 25.1 16.7 7.3 32 9.4 N 41 50 22 27 1000.7 1000.6 0.0
12/09:30am 24.0 18.4 8.8 38 8.2 N 28 41 15 22 1001.1 1001.0 0.0
12/09:00am 22.7 16.7 10.2 45 6.9 N 32 41 17 22 1001.6 1001.5 0.0
12/08:30am 23.3 16.1 7.8 37 8.2 N 35 46 19 25 1001.6 1001.5 0.0
12/08:00am 22.4 16.0 8.5 41 7.4 N 32 48 17 26 1002.0 1001.9 0.0
12/07:30am 23.0 13.6 5.4 32 8.8 N 44 56 24 30 1001.9 1001.8 0.0
12/07:00am 22.6 14.4 6.4 35 8.3 N 39 46 21 25 1002.1 1002.0 0.0
12/06:30am 21.3 15.3 10.2 49 6.0 N 32 43 17 23 1002.1 1002.0 0.0
12/06:00am 19.9 14.7 12.9 64 4.0 NNE 32 39 17 21 1002.8 1002.7 0.0
12/05:30am 19.8 15.3 12.6 63 4.1 N 28 35 15 19 1002.6 1002.5 0.0
12/05:00am 19.4 13.3 13.1 67 3.6 N 37 46 20 25 1002.7 1002.6 0.0
12/04:30am 19.3 11.8 12.6 65 3.8 N 44 50 24 27 1002.8 1002.7 0.0
12/04:00am 17.5 12.4 15.7 89 1.1 N 37 44 20 24 1003.4 1003.3 0.0
12/03:30am 17.2 13.4 16.6 96 0.4 N 32 39 17 21 1003.8 1003.7 0.0
12/03:00am 16.8 13.7 16.5 98 0.2 N 28 35 15 19 1004.0 1003.9 0.0
12/02:30am 17.0 14.0 16.7 98 0.2 N 28 35 15 19 1004.6 1004.5 0.0
12/02:00am 16.9 14.6 16.6 98 0.2 N 24 28 13 15 1005.6 1005.5 0.0
12/01:30am 16.7 15.2 16.2 97 0.3 N 19 22 10 12 1006.8 1006.7 0.0
12/01:00am 16.8 15.3 16.3 97 0.3 N 19 22 10 12 1007.5 1007.4 0.0
12/12:30am 16.8 15.6 16.2 96 0.4 N 17 20 9 11 1007.9 1007.8 0.0
12/12:00am 16.9 16.4 15.9 94 0.6 NW 13 15 7 8 1008.2 1008.1 0.0
 
Date/Time
EDT
Temp
°C
App
Temp
°C
Dew
Point
°C
Rel
Hum
%
Delta-T
°C
Wind Press
QNH
hPa
Press
MSL
hPa
Rain since
9am
mm
Dir  Spd
km/h
Gust
km/h
Spd
kts
Gust
kts
11/11:30pm 17.0 16.9 15.9 93 0.6 WNW 11 13 6 7 1008.3 1008.2 0.0
11/11:00pm 17.5 17.6 16.5 94 0.6 NW 11 13 6 7 1008.7 1008.6 0.0
11/10:30pm 17.9 17.0 16.8 93 0.7 NNW 17 20 9 11 1009.1 1009.0 0.0
11/10:00pm 18.3 17.0 16.8 91 0.9 N 19 22 10 12 1009.4 1009.3 0.0
11/09:30pm 18.3 17.3 16.5 89 1.1 NNE 17 20 9 11 1009.6 1009.5 0.0
11/09:00pm 18.4 18.1 16.4 88 1.2 NNE 13 17 7 9 1009.9 1009.8 0.0
11/08:30pm 18.4 18.0 16.2 87 1.3 NNE 13 17 7 9 1009.9 1009.8 0.0
11/08:00pm 18.5 17.6 15.9 85 1.5 NNE 15 19 8 10 1010.2 1010.1 0.0
11/07:30pm 18.4 16.6 15.6 84 1.7 NNE 19 20 10 11 1010.1 1010.0 0.0
11/07:00pm 18.6 16.6 14.9 79 2.2 NNE 19 24 10 13 1010.0 1009.9 0.0
11/06:30pm 19.1 17.4 14.8 76 2.5 NNE 17 20 9 11 1009.9 1009.8 0.0
11/06:00pm 19.3 18.5 15.0 76 2.5 N 13 19 7 10 1009.9 1009.8 0.0
11/05:30pm 19.3 18.5 15.2 77 2.4 N 13 20 7 11 1010.1 1010.0 0.0
11/05:00pm 19.5 17.8 15.8 79 2.2 N 19 24 10 13 1009.9 1009.8 0.0
11/04:30pm 19.6 17.5 16.1 80 2.1 N 22 26 12 14 1010.0 1009.9 0.0
11/04:00pm 19.8 17.4 15.4 76 2.6 N 22 26 12 14 1010.3 1010.2 0.0
11/03:30pm 19.8 18.0 16.1 79 2.2 NNE 20 26 11 14 1010.5 1010.4 0.0
11/03:00pm 19.6 17.2 15.3 76 2.5 NNE 22 28 12 15 1010.9 1010.8 0.0
11/02:30pm 20.0 17.6 15.4 75 2.7 NE 22 28 12 15 1011.1 1011.0 0.0
11/02:00pm 19.6 15.9 15.0 75 2.7 NE 28 33 15 18 1011.2 1011.1 0.0
11/01:30pm 19.2 15.0 14.7 75 2.6 NE 30 35 16 19 1011.5 1011.4 0.0
11/01:00pm 19.1 15.2 14.4 74 2.7 NE 28 33 15 18 1011.7 1011.6 0.0
11/12:30pm 19.2 15.6 14.2 73 2.9 NE 26 33 14 18 1012.1 1012.0 0.0
11/12:00pm 19.0 15.4 14.1 73 2.8 NE 26 32 14 17 1012.4 1012.3 0.0
11/11:30am 18.8 14.4 14.1 74 2.7 NNE 30 37 16 20 1012.8 1012.7 0.0
11/11:00am 18.7 14.1 13.6 72 2.9 NNE 30 37 16 20 1012.9 1012.8 0.0
11/10:30am 18.8 14.2 13.4 71 3.1 NNE 30 37 16 20 1013.7 1013.6 0.0
11/10:00am 18.4 16.0 14.5 78 2.3 N 20 32 11 17 1014.1 1014.0 0.0
11/09:30am 17.8 16.3 14.1 79 2.1 N 15 26 8 14 1014.4 1014.3 0.0
11/09:00am 16.7 14.2 13.4 81 1.9 NNW 19 22 10 12 1014.5 1014.4 0.0
11/08:30am 16.9 14.4 13.4 80 2.0 N 19 26 10 14 1014.5 1014.4 0.0
11/08:00am 16.6 13.4 13.1 80 2.0 N 22 32 12 17 1014.3 1014.2 0.0
11/07:30am 16.1 13.8 13.0 82 1.7 N 17 26 9 14 1014.2 1014.1 0.0
11/07:00am 15.5 13.7 13.3 87 1.2 N 15 19 8 10 1014.4 1014.3 0.0
11/06:30am 14.8 13.7 13.2 90 0.9 NW 11 15 6 8 1014.5 1014.4 0.0
11/06:00am 14.8 13.4 13.3 91 0.8 NNW 13 19 7 10 1014.3 1014.2 0.0
11/05:30am 14.9 12.8 13.6 92 0.7 NNW 17 22 9 12 1013.7 1013.6 0.0
11/05:00am 15.3 12.9 13.8 91 0.8 NNW 19 24 10 13 1013.4 1013.2 0.0
11/04:30am 15.0 14.4 13.5 91 0.8 NNW 9 13 5 7 1013.7 1013.6 0.0
11/04:00am 15.2 14.9 13.4 89 1.0 NNW 7 9 4 5 1014.0 1013.9 0.0
11/03:30am 15.1 14.8 12.6 85 1.4 NW 6 7 3 4 1014.3 1014.2 0.0
11/03:00am 15.4 15.7 12.2 81 1.7 WSW 2 4 1 2 1014.6 1014.5 0.0
11/02:30am 15.6 15.1 12.2 80 1.9 S 6 9 3 5 1014.8 1014.7 0.0
11/02:00am 15.7 14.4 12.5 81 1.8 S 11 17 6 9 1014.9 1014.8 0.0
11/01:30am 15.4 13.7 12.3 82 1.7 S 13 17 7 9 1014.9 1014.8 0.0
11/01:00am 15.5 13.0 12.4 82 1.7 S 17 20 9 11 1015.1 1015.0 0.0
11/12:30am 15.4 12.6 12.5 83 1.6 SSE 19 24 10 13 1015.2 1015.1 0.0
11/12:00am 15.3 12.6 12.8 85 1.4 S 19 24 10 13 1015.1 1015.0 0.0
 
Date/Time
EDT
Temp
°C
App
Temp
°C
Dew
Point
°C
Rel
Hum
%
Delta-T
°C
Wind Press
QNH
hPa
Press
MSL
hPa
Rain since
9am
mm
Dir  Spd
km/h
Gust
km/h
Spd
kts
Gust
kts
10/11:30pm 15.3 11.2 12.8 85 1.4 S 26 32 14 17 1015.0 1014.9 0.0
10/11:00pm 15.1 10.6 12.6 85 1.4 S 28 33 15 18 1014.9 1014.8 0.0
10/10:30pm 15.3 10.8 12.6 84 1.5 S 28 33 15 18 1014.8 1014.7 0.0
10/10:00pm 15.3 10.4 12.6 84 1.5 S 30 35 16 19 1014.7 1014.6 0.0
10/09:30pm 15.5 10.6 12.4 82 1.7 S 30 35 16 19 1014.3 1014.2 0.0
10/09:00pm 15.9 11.7 12.3 79 2.0 S 26 33 14 18 1014.1 1014.0 0.0
10/08:30pm 16.2 10.8 12.2 77 2.2 S 32 39 17 21 1013.8 1013.7 0.0
10/08:00pm 16.5 11.0 11.9 74 2.5 S 32 39 17 21 1013.4 1013.2 0.0
10/07:30pm 17.0 11.6 12.3 74 2.6 S 32 41 17 22 1013.1 1012.9 0.0
10/07:00pm 17.2 11.7 12.5 74 2.6 S 33 44 18 24 1012.2 1012.1 0.0
10/06:30pm 17.1 9.7 12.4 74 2.6 SSE 43 50 23 27 1011.6 1011.5 0.0
10/06:00pm 17.7 11.7 12.2 70 3.0 S 35 48 19 26 1011.1 1011.0 0.0
10/05:30pm 17.6 10.5 12.3 71 2.9 S 41 54 22 29 1010.9 1010.8 0.0
10/05:00pm 17.9 9.8 11.9 68 3.3 S 46 57 25 31 1010.2 1010.1 0.0
10/04:30pm 17.8 8.9 12.0 69 3.2 SSE 50 61 27 33 1010.0 1009.9 0.0
10/04:00pm 17.8 9.8 12.3 70 3.1 SSE 46 56 25 30 1010.0 1009.9 0.0
10/03:30pm 17.8 10.6 12.0 69 3.2 SSE 41 46 22 25 1010.3 1010.2 0.0
10/03:00pm 17.4 9.8 11.7 69 3.1 SSE 43 54 23 29 1010.3 1010.2 0.0
10/02:30pm 18.1 10.9 11.9 67 3.4 SSE 41 50 22 27 1010.5 1010.4 0.0
10/02:00pm 17.9 10.1 11.2 65 3.6 SSE 43 50 23 27 1010.5 1010.4 0.0
10/01:30pm 17.9 11.3 11.5 66 3.5 SSE 37 43 20 23 1010.7 1010.6 0.0
10/01:00pm 18.1 11.7 10.7 62 4.0 S 35 43 19 23 1010.6 1010.5 0.0
10/12:50pm 20.0 13.5 10.4 54 5.2 S 35 50 19 27 1010.7 1010.6 0.0
10/12:30pm 20.0 12.3 8.7 48 5.9 SSW 39 46 21 25 1010.7 1010.6 0.0
10/12:04pm 20.9 13.6 8.9 46 6.4 SW 37 57 20 31 1010.7 1010.6 0.0
10/12:00pm 19.5 13.2 9.7 53 5.2 SW 33 46 18 25 1010.9 1010.8 0.0
10/11:30am 19.7 12.8 8.7 49 5.8 SSW 35 46 19 25 1010.8 1010.7 0.0
10/11:00am 19.1 12.7 8.7 51 5.4 SW 32 44 17 24 1010.9 1010.8 0.0
10/10:30am 20.0 12.9 8.0 46 6.2 SW 35 44 19 24 1010.7 1010.6 0.0
10/10:00am 18.7 11.9 7.5 48 5.7 SW 33 44 18 24 1010.6 1010.5 0.0
10/09:30am 18.5 11.2 7.0 47 5.8 SW 35 44 19 24 1010.5 1010.4 0.0
10/09:00am 17.8 11.9 7.5 51 5.2 SW 28 41 15 22 1010.5 1010.4 0.0
10/08:50am 17.5 10.7 6.7 49 5.4 SW 32 43 17 23 1010.3 1010.2 0.0
10/08:30am 17.4 13.6 7.7 53 4.9 SW 17 24 9 13 1010.3 1010.2 0.0
10/08:00am 16.8 12.9 7.2 53 4.8 SW 17 20 9 11 1009.9 1009.8 0.0
10/07:30am 15.9 11.4 6.9 55 4.4 SSW 20 28 11 15 1009.7 1009.6 0.0
10/07:00am 15.8 11.0 7.3 57 4.2 SW 22 32 12 17 1009.3 1009.2 0.0
10/06:30am 15.8 10.7 6.0 52 4.7 SW 22 30 12 16 1009.0 1008.9 0.0
10/06:00am 15.5 11.2 7.0 57 4.2 SSW 19 22 10 12 1008.8 1008.7 0.0
10/05:30am 15.5 11.5 6.5 55 4.4 SSW 17 24 9 13 1008.2 1008.1 0.0

Other formats

Comma delimited format used in spreadsheet applications
http://www.bom.gov.au/fwo/IDN60801/IDN60801.94939.axf

JavaScript Object Notation format (JSON) in row-major order
http://www.bom.gov.au/fwo/IDN60801/IDN60801.94939.json

Data quality

Most of these data are generated automatically and are frequently updated. Quality checks on data are not normally performed. It is possible for incorrect values to appear. Refer to information at About Latest Weather Observations and please check the disclaimer before using these data.